No particular awareness of the weather is required.    There are no Weather-warnings


Meteo18 Weather Cam more information Meteo18 Weather Cam


Thunder radar more information blitzortung!


Rain radar more information rain snow radar


Visit our other weather sites:

Template documentation
and downloads

And another site



Weather Underground History page Text

Daily Summary for September 22, 2016 Units:  Metric    English   Both
« Previous Day
Next Day »
Daily Weekly Monthly Yearly Custom
  High: Low: Average:
Temperature: 23.2 °C 8.4 °C 15.8 °C
Dew Point: 12.1 °C 7.6 °C 9.8 °C
Humidity: 96 % 42 % 71 %
Wind Speed: 6.4 km/h 0.0 km/h 1.1 km/h
Wind Gust: 11.3 km/h - -
Wind:- - SSE
Pressure: 1021.2 hPa 1018.5 hPa -
Precipitation: 0.0 mm    
Historical Graphs
 
 
Tabular Data for September 22, 2016
Time Temperature Dew Point Pressure Wind Wind Speed Wind Gust Humidity Rainfall Rate (Hourly)
00:02 13.2 °C 9.8 °C 1018.5 hPa Calm   3.2 km/h 80 % 0.0 mm
00:12 13.2 °C 9.8 °C 1018.8 hPa Calm   3.2 km/h 80 % 0.0 mm
00:17 13.3 °C 9.9 °C 1018.8 hPa NNW 1.6 km/h 3.2 km/h 80 % 0.0 mm
00:22 13.5 °C 9.9 °C 1018.8 hPa Calm   1.6 km/h 79 % 0.0 mm
00:27 13.4 °C 9.8 °C 1018.8 hPa NNW 1.6 km/h 1.6 km/h 79 % 0.0 mm
00:32 13.2 °C 9.8 °C 1018.8 hPa Calm   1.6 km/h 80 % 0.0 mm
00:37 13.1 °C 9.9 °C 1018.8 hPa NNW 3.2 km/h 3.2 km/h 81 % 0.0 mm
00:42 13.1 °C 9.9 °C 1018.8 hPa North 1.6 km/h 3.2 km/h 81 % 0.0 mm
00:47 13.1 °C 10.1 °C 1018.8 hPa Calm   3.2 km/h 82 % 0.0 mm
00:52 13.0 °C 9.8 °C 1018.8 hPa Calm   3.2 km/h 81 % 0.0 mm
00:57 12.7 °C 9.5 °C 1018.8 hPa WNW 1.6 km/h 3.2 km/h 81 % 0.0 mm
01:02 12.4 °C 9.8 °C 1018.8 hPa WNW 1.6 km/h 3.2 km/h 84 % 0.0 mm
01:07 12.3 °C 9.7 °C 1018.8 hPa Calm   3.2 km/h 84 % 0.0 mm
01:12 12.1 °C 9.5 °C 1018.8 hPa WNW 3.2 km/h 3.2 km/h 84 % 0.0 mm
01:22 11.7 °C 9.6 °C 1018.8 hPa Calm   3.2 km/h 87 % 0.0 mm
01:27 11.9 °C 9.6 °C 1018.8 hPa Calm   3.2 km/h 86 % 0.0 mm
01:32 11.9 °C 9.6 °C 1018.8 hPa WNW 3.2 km/h 3.2 km/h 86 % 0.0 mm
01:37 11.6 °C 9.3 °C 1018.8 hPa WNW 1.6 km/h 3.2 km/h 86 % 0.0 mm
01:42 11.7 °C 9.6 °C 1018.8 hPa WNW 1.6 km/h 3.2 km/h 87 % 0.0 mm
01:52 11.7 °C 9.6 °C 1018.8 hPa WNW 1.6 km/h 3.2 km/h 87 % 0.0 mm
01:57 11.6 °C 9.5 °C 1018.8 hPa Calm   3.2 km/h 87 % 0.0 mm
02:02 11.4 °C 9.5 °C 1018.8 hPa Calm   3.2 km/h 88 % 0.0 mm
02:07 11.5 °C 9.6 °C 1018.8 hPa Calm   1.6 km/h 88 % 0.0 mm
02:12 11.5 °C 9.6 °C 1018.8 hPa Calm   1.6 km/h 88 % 0.0 mm
02:17 11.6 °C 9.7 °C 1018.8 hPa Calm     88 % 0.0 mm
02:22 11.6 °C 9.7 °C 1018.8 hPa Calm     88 % 0.0 mm
02:27 11.7 °C 9.8 °C 1018.8 hPa Calm     88 % 0.0 mm
02:32 11.8 °C 9.9 °C 1018.8 hPa Calm     88 % 0.0 mm
02:37 11.8 °C 9.7 °C 1018.8 hPa Calm     87 % 0.0 mm
02:42 11.7 °C 9.6 °C 1018.8 hPa Calm     87 % 0.0 mm
02:47 11.5 °C 9.4 °C 1018.8 hPa Calm     87 % 0.0 mm
02:52 11.3 °C 9.4 °C 1018.8 hPa Calm     88 % 0.0 mm
02:57 11.5 °C 9.7 °C 1018.8 hPa Calm     89 % 0.0 mm
03:02 11.4 °C 9.5 °C 1018.8 hPa Calm     88 % 0.0 mm
03:12 11.2 °C 9.5 °C 1018.8 hPa Calm     89 % 0.0 mm
03:17 11.2 °C 9.3 °C 1018.8 hPa Calm     88 % 0.0 mm
03:22 10.9 °C 9.2 °C 1018.8 hPa Calm     89 % 0.0 mm
03:27 10.8 °C 9.2 °C 1018.8 hPa Calm     90 % 0.0 mm
03:32 10.7 °C 9.1 °C 1018.8 hPa Calm     90 % 0.0 mm
03:37 10.4 °C 8.8 °C 1018.8 hPa Calm     90 % 0.0 mm
03:42 10.3 °C 8.9 °C 1018.8 hPa Calm     91 % 0.0 mm
03:47 10.3 °C 9.1 °C 1018.8 hPa Calm     92 % 0.0 mm
03:52 10.2 °C 8.8 °C 1018.8 hPa Calm     91 % 0.0 mm
03:57 10.2 °C 9.0 °C 1018.8 hPa Calm     92 % 0.0 mm
04:02 10.2 °C 9.0 °C 1018.8 hPa Calm     92 % 0.0 mm
04:07 10.3 °C 9.1 °C 1018.8 hPa Calm     92 % 0.0 mm
04:17 10.2 °C 9.0 °C 1018.8 hPa Calm     92 % 0.0 mm
04:22 10.1 °C 8.9 °C 1019.2 hPa Calm     92 % 0.0 mm
04:27 10.1 °C 8.9 °C 1019.2 hPa Calm     92 % 0.0 mm
04:32 10.0 °C 8.9 °C 1019.2 hPa Calm     93 % 0.0 mm
04:37 9.9 °C 8.8 °C 1019.2 hPa Calm     93 % 0.0 mm
04:42 9.9 °C 8.8 °C 1019.2 hPa Calm     93 % 0.0 mm
04:47 9.9 °C 8.8 °C 1019.2 hPa Calm     93 % 0.0 mm
04:52 9.8 °C 8.7 °C 1019.2 hPa Calm     93 % 0.0 mm
04:57 9.8 °C 8.7 °C 1019.2 hPa Calm     93 % 0.0 mm
05:12 9.6 °C 8.5 °C 1019.2 hPa Calm     93 % 0.0 mm
05:22 9.6 °C 8.7 °C 1019.2 hPa Calm     94 % 0.0 mm
05:32 9.6 °C 8.7 °C 1019.2 hPa Calm     94 % 0.0 mm
05:37 9.6 °C 8.7 °C 1019.2 hPa Calm     94 % 0.0 mm
05:42 9.5 °C 8.6 °C 1019.2 hPa Calm     94 % 0.0 mm
05:47 9.5 °C 8.6 °C 1019.2 hPa Calm     94 % 0.0 mm
05:52 9.4 °C 8.5 °C 1019.2 hPa Calm     94 % 0.0 mm
06:02 9.3 °C 8.4 °C 1019.2 hPa Calm     94 % 0.0 mm
06:12 9.1 °C 8.2 °C 1019.2 hPa Calm     94 % 0.0 mm
06:17 8.9 °C 8.0 °C 1019.2 hPa Calm     94 % 0.0 mm
06:22 8.9 °C 8.0 °C 1019.2 hPa Calm     94 % 0.0 mm
06:32 8.8 °C 7.9 °C 1019.5 hPa Calm     94 % 0.0 mm
06:37 8.7 °C 7.8 °C 1019.2 hPa Calm     94 % 0.0 mm
06:42 8.7 °C 7.9 °C 1019.5 hPa Calm     95 % 0.0 mm
06:47 8.8 °C 8.0 °C 1019.5 hPa Calm     95 % 0.0 mm
06:52 8.8 °C 8.0 °C 1019.5 hPa Calm     95 % 0.0 mm
06:57 8.7 °C 7.9 °C 1019.5 hPa Calm     95 % 0.0 mm
07:02 8.8 °C 8.0 °C 1019.5 hPa Calm     95 % 0.0 mm
07:12 8.7 °C 7.9 °C 1019.5 hPa Calm     95 % 0.0 mm
07:17 8.5 °C 7.7 °C 1019.9 hPa Calm     95 % 0.0 mm
07:22 8.4 °C 7.6 °C 1019.5 hPa Calm     95 % 0.0 mm
07:32 8.6 °C 8.0 °C 1019.9 hPa Calm     96 % 0.0 mm
07:37 8.6 °C 7.8 °C 1019.9 hPa Calm     95 % 0.0 mm
07:42 8.6 °C 8.0 °C 1019.9 hPa Calm     96 % 0.0 mm
07:52 8.5 °C 7.7 °C 1019.9 hPa Calm     95 % 0.0 mm
07:57 8.5 °C 7.7 °C 1019.9 hPa Calm     95 % 0.0 mm
08:02 8.6 °C 7.8 °C 1019.9 hPa Calm     95 % 0.0 mm
08:12 9.0 °C 8.4 °C 1019.9 hPa Calm     96 % 0.0 mm
08:17 9.1 °C 8.3 °C 1019.9 hPa Calm     95 % 0.0 mm
08:22 9.1 °C 8.3 °C 1019.9 hPa Calm     95 % 0.0 mm
08:32 9.5 °C 8.7 °C 1019.9 hPa Calm     95 % 0.0 mm
08:42 10.1 °C 9.3 °C 1019.9 hPa Calm     95 % 0.0 mm
08:47 10.3 °C 9.5 °C 1019.9 hPa Calm     95 % 0.0 mm
08:52 10.6 °C 9.8 °C 1019.9 hPa Calm     95 % 0.0 mm
08:57 11.3 °C 10.5 °C 1019.9 hPa Calm     95 % 0.0 mm
09:02 11.9 °C 10.8 °C 1020.2 hPa Calm     93 % 0.0 mm
09:12 12.3 °C 11.0 °C 1019.9 hPa Calm     92 % 0.0 mm
09:17 12.8 °C 11.4 °C 1020.2 hPa Calm     91 % 0.0 mm
09:22 12.9 °C 11.0 °C 1020.2 hPa Calm     88 % 0.0 mm
09:32 12.8 °C 10.9 °C 1020.2 hPa Calm     88 % 0.0 mm
09:42 13.6 °C 11.6 °C 1020.2 hPa Calm     88 % 0.0 mm
09:47 14.1 °C 11.3 °C 1020.2 hPa Calm     83 % 0.0 mm
09:52 14.3 °C 10.9 °C 1020.2 hPa ENE 1.6 km/h   80 % 0.0 mm
09:57 14.6 °C 11.2 °C 1020.2 hPa Calm   3.2 km/h 80 % 0.0 mm
10:02 14.5 °C 10.9 °C 1020.2 hPa Calm   3.2 km/h 79 % 0.0 mm
10:12 15.0 °C 11.2 °C 1020.5 hPa Calm   3.2 km/h 78 % 0.0 mm
10:17 15.3 °C 11.3 °C 1020.5 hPa Calm   1.6 km/h 77 % 0.0 mm
10:22 15.6 °C 11.4 °C 1020.5 hPa Calm   1.6 km/h 76 % 0.0 mm
10:32 16.1 °C 11.3 °C 1020.5 hPa Calm   1.6 km/h 73 % 0.0 mm
10:42 16.2 °C 11.4 °C 1020.5 hPa Calm   1.6 km/h 73 % 0.0 mm
10:52 16.7 °C 11.8 °C 1020.5 hPa WNW 1.6 km/h 3.2 km/h 73 % 0.0 mm
10:57 17.0 °C 11.9 °C 1020.5 hPa Calm   3.2 km/h 72 % 0.0 mm
11:02 17.4 °C 12.1 °C 1020.5 hPa WNW 1.6 km/h 3.2 km/h 71 % 0.0 mm
11:12 17.3 °C 11.8 °C 1020.5 hPa SSW 1.6 km/h 3.2 km/h 70 % 0.0 mm
11:17 17.4 °C 11.7 °C 1020.5 hPa South 3.2 km/h 3.2 km/h 69 % 0.0 mm
11:22 17.6 °C 11.4 °C 1020.5 hPa South 1.6 km/h 3.2 km/h 67 % 0.0 mm
11:27 17.8 °C 11.4 °C 1020.5 hPa Calm   6.4 km/h 66 % 0.0 mm
11:32 18.3 °C 12.1 °C 1020.5 hPa SE 1.6 km/h 6.4 km/h 67 % 0.0 mm
11:37 18.4 °C 11.9 °C 1020.5 hPa ESE 3.2 km/h 4.8 km/h 66 % 0.0 mm
11:42 18.4 °C 11.5 °C 1020.5 hPa SW 1.6 km/h 4.8 km/h 64 % 0.0 mm
11:47 18.7 °C 11.5 °C 1020.5 hPa SSW 1.6 km/h 4.8 km/h 63 % 0.0 mm
11:52 18.9 °C 11.2 °C 1020.5 hPa Calm   4.8 km/h 61 % 0.0 mm
12:02 19.2 °C 11.2 °C 1020.5 hPa SW 3.2 km/h 3.2 km/h 60 % 0.0 mm
12:07 19.5 °C 11.3 °C 1020.5 hPa NE 4.8 km/h 4.8 km/h 59 % 0.0 mm
12:12 19.7 °C 11.2 °C 1020.5 hPa SSE 3.2 km/h 4.8 km/h 58 % 0.0 mm
12:17 19.9 °C 10.9 °C 1020.5 hPa Calm   6.4 km/h 56 % 0.0 mm
12:22 20.3 °C 11.0 °C 1020.5 hPa WSW 3.2 km/h 6.4 km/h 55 % 0.0 mm
12:27 20.6 °C 11.0 °C 1020.5 hPa SE 3.2 km/h 6.4 km/h 54 % 0.0 mm
12:32 20.8 °C 10.9 °C 1020.5 hPa ENE 3.2 km/h 6.4 km/h 53 % 0.0 mm
12:42 20.5 °C 10.0 °C 1020.5 hPa Calm   6.4 km/h 51 % 0.0 mm
12:52 20.7 °C 9.9 °C 1020.5 hPa East 4.8 km/h 8.0 km/h 50 % 0.0 mm
12:57 20.8 °C 9.7 °C 1020.5 hPa Calm   11.3 km/h 49 % 0.0 mm
13:02 20.8 °C 9.7 °C 1020.5 hPa SE 1.6 km/h 11.3 km/h 49 % 0.0 mm
13:07 21.4 °C 9.9 °C 1020.2 hPa SW 1.6 km/h 8.0 km/h 48 % 0.0 mm
13:12 21.6 °C 9.5 °C 1020.2 hPa East 4.8 km/h 8.0 km/h 46 % 0.0 mm
13:17 21.1 °C 9.7 °C 1020.2 hPa East 3.2 km/h 11.3 km/h 48 % 0.0 mm
13:22 21.1 °C 10.0 °C 1020.2 hPa ESE 1.6 km/h 11.3 km/h 49 % 0.0 mm
13:37 21.3 °C 9.8 °C 1020.5 hPa ESE 3.2 km/h 9.7 km/h 48 % 0.0 mm
13:42 21.4 °C 9.6 °C 1020.5 hPa Calm   9.7 km/h 47 % 0.0 mm
13:47 21.6 °C 9.8 °C 1020.5 hPa Calm   8.0 km/h 47 % 0.0 mm
13:52 21.6 °C 9.8 °C 1020.5 hPa East 4.8 km/h 8.0 km/h 47 % 0.0 mm
13:57 21.8 °C 10.0 °C 1020.5 hPa SE 6.4 km/h 8.0 km/h 47 % 0.0 mm
14:02 21.7 °C 10.2 °C 1020.2 hPa ESE 4.8 km/h 8.0 km/h 48 % 0.0 mm
14:07 21.7 °C 9.6 °C 1020.2 hPa SW 4.8 km/h 9.7 km/h 46 % 0.0 mm
14:12 21.4 °C 9.3 °C 1020.2 hPa SSW 1.6 km/h 9.7 km/h 46 % 0.0 mm
14:17 21.3 °C 9.5 °C 1020.2 hPa East 4.8 km/h 8.0 km/h 47 % 0.0 mm
14:22 21.2 °C 9.4 °C 1020.2 hPa NE 4.8 km/h 8.0 km/h 47 % 0.0 mm
14:27 21.1 °C 9.7 °C 1020.2 hPa ESE 1.6 km/h 6.4 km/h 48 % 0.0 mm
14:32 21.4 °C 9.6 °C 1020.2 hPa ESE 1.6 km/h 6.4 km/h 47 % 0.0 mm
14:42 22.0 °C 9.5 °C 1020.2 hPa ENE 1.6 km/h 8.0 km/h 45 % 0.0 mm
14:52 21.9 °C 9.4 °C 1019.9 hPa East 4.8 km/h 11.3 km/h 45 % 0.0 mm
14:57 21.9 °C 9.4 °C 1019.9 hPa SSW 1.6 km/h 11.3 km/h 45 % 0.0 mm
15:02 22.3 °C 9.5 °C 1019.9 hPa Calm   11.3 km/h 44 % 0.0 mm
15:07 22.8 °C 9.9 °C 1019.9 hPa East 6.4 km/h 8.0 km/h 44 % 0.0 mm
15:12 22.4 °C 9.5 °C 1019.9 hPa Calm   8.0 km/h 44 % 0.0 mm
15:17 22.3 °C 9.5 °C 1019.9 hPa East 6.4 km/h 6.4 km/h 44 % 0.0 mm
15:22 22.3 °C 9.5 °C 1019.9 hPa Calm   6.4 km/h 44 % 0.0 mm
15:27 22.5 °C 9.3 °C 1019.9 hPa SSW 6.4 km/h 8.0 km/h 43 % 0.0 mm
15:32 22.4 °C 9.5 °C 1019.9 hPa Calm   8.0 km/h 44 % 0.0 mm
15:37 22.6 °C 9.4 °C 1019.9 hPa WNW 3.2 km/h 9.7 km/h 43 % 0.0 mm
15:42 22.1 °C 9.3 °C 1019.9 hPa Calm   9.7 km/h 44 % 0.0 mm
15:47 22.1 °C 9.9 °C 1019.9 hPa Calm   8.0 km/h 46 % 0.0 mm
15:52 22.2 °C 9.7 °C 1019.9 hPa ENE 3.2 km/h 8.0 km/h 45 % 0.0 mm
15:57 22.3 °C 10.1 °C 1019.9 hPa SE 1.6 km/h 9.7 km/h 46 % 0.0 mm
16:02 22.5 °C 10.3 °C 1019.9 hPa SE 1.6 km/h 9.7 km/h 46 % 0.0 mm
16:12 22.7 °C 10.2 °C 1019.9 hPa SSW 4.8 km/h 8.0 km/h 45 % 0.0 mm
16:17 22.6 °C 10.1 °C 1019.9 hPa SSE 3.2 km/h 8.0 km/h 45 % 0.0 mm
16:22 22.9 °C 10.0 °C 1019.9 hPa East 3.2 km/h 8.0 km/h 44 % 0.0 mm
16:32 23.0 °C 10.1 °C 1019.9 hPa Calm   6.4 km/h 44 % 0.0 mm
16:37 23.2 °C 10.3 °C 1019.9 hPa Calm   4.8 km/h 44 % 0.0 mm
16:42 23.1 °C 10.2 °C 1019.9 hPa ENE 3.2 km/h 4.8 km/h 44 % 0.0 mm
16:47 22.9 °C 9.3 °C 1019.9 hPa ENE 4.8 km/h 4.8 km/h 42 % 0.0 mm
16:52 22.5 °C 9.6 °C 1019.9 hPa SSE 1.6 km/h 4.8 km/h 44 % 0.0 mm
16:57 22.6 °C 9.4 °C 1019.9 hPa ESE 6.4 km/h 9.7 km/h 43 % 0.0 mm
17:02 22.4 °C 9.5 °C 1019.5 hPa ESE 1.6 km/h 9.7 km/h 44 % 0.0 mm
17:07 22.6 °C 9.7 °C 1019.5 hPa SE 3.2 km/h 8.0 km/h 44 % 0.0 mm
17:12 22.4 °C 9.2 °C 1019.5 hPa SSE 1.6 km/h 8.0 km/h 43 % 0.0 mm
17:17 22.3 °C 9.5 °C 1019.5 hPa ENE 3.2 km/h 6.4 km/h 44 % 0.0 mm
17:27 21.9 °C 9.4 °C 1019.5 hPa East 6.4 km/h 11.3 km/h 45 % 0.0 mm
17:32 21.8 °C 9.3 °C 1019.5 hPa ENE 6.4 km/h 11.3 km/h 45 % 0.0 mm
17:37 21.8 °C 9.3 °C 1019.5 hPa NE 3.2 km/h 11.3 km/h 45 % 0.0 mm
17:42 21.7 °C 9.2 °C 1019.5 hPa East 3.2 km/h 11.3 km/h 45 % 0.0 mm
17:47 21.7 °C 9.6 °C 1019.5 hPa Calm   9.7 km/h 46 % 0.0 mm
17:52 21.8 °C 9.7 °C 1019.5 hPa Calm   9.7 km/h 46 % 0.0 mm
17:57 21.8 °C 10.0 °C 1019.5 hPa ENE 3.2 km/h 8.0 km/h 47 % 0.0 mm
18:02 21.7 °C 10.2 °C 1019.5 hPa East 3.2 km/h 8.0 km/h 48 % 0.0 mm
18:12 21.6 °C 10.1 °C 1019.5 hPa East 4.8 km/h 9.7 km/h 48 % 0.0 mm
18:17 21.4 °C 9.9 °C 1019.5 hPa East 1.6 km/h 9.7 km/h 48 % 0.0 mm
18:22 21.5 °C 10.0 °C 1019.9 hPa East 4.8 km/h 8.0 km/h 48 % 0.0 mm
18:27 21.4 °C 10.2 °C 1019.9 hPa East 3.2 km/h 8.0 km/h 49 % 0.0 mm
18:32 21.3 °C 10.2 °C 1019.9 hPa East 3.2 km/h 8.0 km/h 49 % 0.0 mm
18:37 21.2 °C 10.4 °C 1019.9 hPa East 1.6 km/h 8.0 km/h 50 % 0.0 mm
18:42 21.1 °C 10.3 °C 1019.9 hPa ENE 3.2 km/h 8.0 km/h 50 % 0.0 mm
18:47 21.1 °C 10.3 °C 1019.9 hPa East 3.2 km/h 6.4 km/h 50 % 0.0 mm
18:52 20.9 °C 10.1 °C 1019.9 hPa East 1.6 km/h 6.4 km/h 50 % 0.0 mm
18:57 20.8 °C 10.0 °C 1019.9 hPa Calm   4.8 km/h 50 % 0.0 mm
19:02 20.7 °C 10.2 °C 1019.9 hPa Calm   4.8 km/h 51 % 0.0 mm
19:12 20.3 °C 10.1 °C 1020.2 hPa East 1.6 km/h 4.8 km/h 52 % 0.0 mm
19:17 20.2 °C 10.3 °C 1019.9 hPa ENE 3.2 km/h 6.4 km/h 53 % 0.0 mm
19:22 19.9 °C 10.3 °C 1020.2 hPa Calm   6.4 km/h 54 % 0.0 mm
19:27 19.7 °C 10.1 °C 1020.2 hPa East 1.6 km/h 6.4 km/h 54 % 0.0 mm
19:32 19.6 °C 10.3 °C 1020.2 hPa East 1.6 km/h 6.4 km/h 55 % 0.0 mm
19:37 19.4 °C 10.1 °C 1020.2 hPa ENE 1.6 km/h 3.2 km/h 55 % 0.0 mm
19:42 19.3 °C 10.0 °C 1020.2 hPa East 1.6 km/h 3.2 km/h 55 % 0.0 mm
19:47 19.2 °C 10.2 °C 1020.2 hPa Calm   6.4 km/h 56 % 0.0 mm
19:52 19.1 °C 10.4 °C 1020.2 hPa East 3.2 km/h 6.4 km/h 57 % 0.0 mm
20:02 18.8 °C 10.1 °C 1020.2 hPa Calm   6.4 km/h 57 % 0.0 mm
20:17 17.8 °C 9.9 °C 1020.2 hPa Calm     60 % 0.0 mm
20:22 17.6 °C 10.0 °C 1020.2 hPa Calm     61 % 0.0 mm
20:27 17.4 °C 10.0 °C 1020.2 hPa Calm     62 % 0.0 mm
20:32 17.2 °C 9.6 °C 1020.5 hPa Calm     61 % 0.0 mm
20:42 16.7 °C 9.6 °C 1020.5 hPa Calm     63 % 0.0 mm
20:47 16.6 °C 10.2 °C 1020.5 hPa Calm     66 % 0.0 mm
20:52 16.4 °C 10.0 °C 1020.5 hPa Calm     66 % 0.0 mm
20:57 16.2 °C 10.3 °C 1020.5 hPa Calm     68 % 0.0 mm
21:02 16.1 °C 10.2 °C 1020.5 hPa Calm     68 % 0.0 mm
21:07 16.1 °C 10.2 °C 1020.5 hPa Calm     68 % 0.0 mm
21:12 16.0 °C 10.1 °C 1020.5 hPa Calm     68 % 0.0 mm
21:17 15.9 °C 10.2 °C 1020.5 hPa Calm     69 % 0.0 mm
21:22 15.9 °C 10.2 °C 1020.5 hPa Calm     69 % 0.0 mm
21:32 15.7 °C 10.2 °C 1020.5 hPa Calm     70 % 0.0 mm
21:37 15.7 °C 10.2 °C 1020.9 hPa NW 1.6 km/h   70 % 0.0 mm
21:42 15.7 °C 10.2 °C 1020.9 hPa North 1.6 km/h 3.2 km/h 70 % 0.0 mm
21:47 15.7 °C 10.2 °C 1020.9 hPa Calm   3.2 km/h 70 % 0.0 mm
21:52 15.3 °C 10.3 °C 1020.9 hPa WNW 1.6 km/h 3.2 km/h 72 % 0.0 mm
21:57 15.1 °C 10.5 °C 1020.9 hPa WNW 1.6 km/h 1.6 km/h 74 % 0.0 mm
22:02 14.9 °C 10.5 °C 1020.9 hPa WNW 1.6 km/h 1.6 km/h 75 % 0.0 mm
22:12 14.6 °C 10.2 °C 1021.2 hPa Calm   3.2 km/h 75 % 0.0 mm
22:17 14.6 °C 10.4 °C 1021.2 hPa Calm   3.2 km/h 76 % 0.0 mm
22:22 14.6 °C 10.4 °C 1021.2 hPa Calm   3.2 km/h 76 % 0.0 mm
22:27 14.6 °C 10.4 °C 1021.2 hPa WNW 1.6 km/h 1.6 km/h 76 % 0.0 mm
22:32 14.5 °C 10.5 °C 1021.2 hPa WNW 1.6 km/h 1.6 km/h 77 % 0.0 mm
22:37 14.8 °C 10.4 °C 1021.2 hPa WNW 1.6 km/h 3.2 km/h 75 % 0.0 mm
22:42 15.2 °C 10.4 °C 1020.9 hPa WNW 1.6 km/h 3.2 km/h 73 % 0.0 mm
22:47 15.2 °C 10.4 °C 1021.2 hPa Calm   3.2 km/h 73 % 0.0 mm
22:52 15.2 °C 10.4 °C 1021.2 hPa Calm   3.2 km/h 73 % 0.0 mm
22:57 15.0 °C 10.4 °C 1021.2 hPa Calm   3.2 km/h 74 % 0.0 mm
23:02 14.8 °C 10.2 °C 1021.2 hPa Calm   3.2 km/h 74 % 0.0 mm
23:12 14.5 °C 10.3 °C 1021.2 hPa Calm     76 % 0.0 mm
23:17 14.4 °C 10.2 °C 1021.2 hPa Calm   1.6 km/h 76 % 0.0 mm
23:22 14.5 °C 10.3 °C 1021.2 hPa Calm   1.6 km/h 76 % 0.0 mm
23:27 14.4 °C 10.2 °C 1021.2 hPa Calm   1.6 km/h 76 % 0.0 mm
23:32 14.3 °C 10.3 °C 1021.2 hPa Calm   1.6 km/h 77 % 0.0 mm
23:42 14.2 °C 10.4 °C 1021.2 hPa NW 1.6 km/h 1.6 km/h 78 % 0.0 mm
23:47 14.1 °C 10.3 °C 1021.2 hPa NNW 1.6 km/h 4.8 km/h 78 % 0.0 mm
23:52 13.9 °C 10.1 °C 1021.2 hPa Calm   4.8 km/h 78 % 0.0 mm
23:57 13.8 °C 10.0 °C 1021.2 hPa Calm   3.2 km/h 78 % 0.0 mm
Meteo18
Compliments of Weather Underground - 4 mb

Script developed by  Jim McMurry - jmcmurry@mwt.net Adapted for the template by  Wim van der Kuil - Leuven-Template.eu

You find our weather info also at:

European Weather Network

Weather Underground

Equipment we use:

Weather-station
Davis Vue

Weather-program
Meteohub

Weather-server
Raspberry PI 2 B+

Provider
1 and 1

Davis Vue

Meteohub

Raspberry PI 2 B+

1 and 1